Time;durP1;ratioP1;P1;durP2;ratioP2;P2;SDS_P1;SDS_P2;PMS_P1;PMS_P2;Temp;Humidity;BMP_temperature;BMP_pressure;BME280_temperature;BME280_humidity;BME280_pressure;Samples;Min_cycle;Max_cycle;Signal;HPM_P1;HPM_P2
2021/09/08 00:03:20;;;;;;;29.20;18.60;;;;;;;15.04;64.47;99828.10;233278;1199;139016;-63
2021/09/08 00:08:24;;;;;;;28.20;18.40;;;;;;;14.94;64.53;99832.64;234095;1199;141615;-64
2021/09/08 00:13:29;;;;;;;30.20;18.70;;;;;;;14.91;64.58;99830.90;234060;1199;140022;-66
2021/09/08 00:18:32;;;;;;;28.20;19.80;;;;;;;14.91;64.82;99828.77;233641;1199;140299;-66
2021/09/08 00:23:36;;;;;;;28.70;17.90;;;;;;;14.88;64.75;99823.61;234170;1201;138406;-70
2021/09/08 00:28:39;;;;;;;33.30;19.20;;;;;;;14.91;64.98;99822.14;234137;1198;138947;-61
2021/09/08 00:33:42;;;;;;;27.60;16.80;;;;;;;14.86;64.86;99818.91;233713;1198;138953;-64
2021/09/08 00:38:46;;;;;;;30.80;18.10;;;;;;;14.79;64.74;99826.31;234058;1199;142183;-63
2021/09/08 00:43:49;;;;;;;30.00;18.20;;;;;;;14.73;64.84;99827.09;234028;1199;140653;-66
2021/09/08 00:48:54;;;;;;;31.40;18.40;;;;;;;14.70;64.96;99823.34;234013;1199;139130;-67
2021/09/08 00:53:59;;;;;;;32.80;17.60;;;;;;;14.72;65.07;99826.98;234090;1199;139299;-67
2021/09/08 00:59:04;;;;;;;27.90;18.20;;;;;;;14.67;65.11;99824.63;233705;1198;163619;-65
2021/09/08 01:04:11;;;;;;;30.90;18.10;;;;;;;14.59;65.05;99823.92;233978;1198;139472;-64
2021/09/08 01:09:17;;;;;;;25.90;17.20;;;;;;;14.54;65.26;99822.80;233988;1201;141777;-66
2021/09/08 01:14:20;;;;;;;31.50;16.60;;;;;;;14.50;65.28;99820.38;234046;1198;140138;-66
2021/09/08 01:19:25;;;;;;;25.90;17.00;;;;;;;14.50;65.33;99822.05;233907;1198;139610;-64
2021/09/08 01:24:29;;;;;;;25.30;16.90;;;;;;;14.46;65.38;99822.06;234061;1198;138671;-68
2021/09/08 01:29:31;;;;;;;29.00;18.00;;;;;;;14.43;65.36;99827.80;234145;1201;139993;-66
2021/09/08 01:34:34;;;;;;;26.10;16.30;;;;;;;14.39;65.41;99831.64;233964;1200;138836;-62
2021/09/08 01:39:37;;;;;;;33.80;16.50;;;;;;;14.32;65.39;99831.17;233969;1200;138908;-67
2021/09/08 01:44:40;;;;;;;26.00;15.50;;;;;;;14.28;65.42;99828.05;234006;1200;140010;-63
2021/09/08 01:49:43;;;;;;;27.00;16.10;;;;;;;14.26;65.59;99828.89;234087;1195;139380;-62
2021/09/08 01:54:46;;;;;;;24.50;15.40;;;;;;;14.20;65.41;99824.66;233995;1198;140114;-61
2021/09/08 01:59:49;;;;;;;24.80;14.90;;;;;;;14.13;65.43;99825.96;234126;1201;139228;-62
2021/09/08 02:04:53;;;;;;;23.70;15.20;;;;;;;14.07;65.51;99822.23;234090;1199;139136;-67
2021/09/08 02:09:57;;;;;;;24.70;15.00;;;;;;;14.00;65.53;99823.45;234135;1198;140371;-63
2021/09/08 02:15:00;;;;;;;21.20;14.00;;;;;;;13.95;65.53;99825.34;234085;1198;139941;-60
2021/09/08 02:20:03;;;;;;;22.50;14.30;;;;;;;13.91;65.64;99823.23;233722;1201;140769;-61
2021/09/08 02:25:07;;;;;;;22.50;15.00;;;;;;;13.91;65.82;99823.80;234076;1201;139772;-59
2021/09/08 02:30:11;;;;;;;26.40;15.10;;;;;;;13.87;65.76;99820.66;234277;1198;139337;-60
2021/09/08 02:35:14;;;;;;;24.90;15.70;;;;;;;13.80;65.58;99825.06;234159;1198;139023;-61
2021/09/08 02:40:17;;;;;;;25.40;15.10;;;;;;;13.74;65.76;99820.77;234018;1199;139492;-64
2021/09/08 02:45:20;;;;;;;22.80;14.20;;;;;;;13.66;65.77;99813.97;234030;1200;139483;-61
2021/09/08 02:50:23;;;;;;;23.70;13.50;;;;;;;13.62;65.67;99816.75;234139;1198;140217;-64
2021/09/08 02:55:26;;;;;;;20.60;13.80;;;;;;;13.61;65.83;99819.26;234135;1199;139476;-60
2021/09/08 03:00:29;;;;;;;24.30;14.60;;;;;;;13.61;66.02;99819.45;234050;1201;138924;-61
2021/09/08 03:05:32;;;;;;;26.60;14.60;;;;;;;13.58;65.94;99822.16;234171;1200;139556;-60
2021/09/08 03:10:35;;;;;;;22.20;14.10;;;;;;;13.53;65.91;99828.54;234104;1198;139877;-60
2021/09/08 03:15:38;;;;;;;24.50;14.00;;;;;;;13.46;66.00;99831.59;234145;1198;139775;-61
2021/09/08 03:20:42;;;;;;;21.50;13.50;;;;;;;13.41;65.86;99835.51;234057;1199;138822;-59
2021/09/08 03:25:45;;;;;;;22.30;13.60;;;;;;;13.34;65.77;99833.42;234026;1200;139300;-58
2021/09/08 03:30:48;;;;;;;21.70;13.90;;;;;;;13.32;65.96;99835.48;234099;1198;139179;-63
2021/09/08 03:35:51;;;;;;;21.30;13.40;;;;;;;13.32;66.52;99828.38;234250;1198;138619;-62
2021/09/08 03:40:54;;;;;;;24.30;13.90;;;;;;;13.32;66.42;99831.21;234063;1199;139081;-62
2021/09/08 03:45:58;;;;;;;21.80;13.80;;;;;;;13.30;66.43;99830.45;234102;1201;138573;-61
2021/09/08 03:51:01;;;;;;;20.20;12.50;;;;;;;13.26;66.47;99828.17;234070;1198;139430;-62
2021/09/08 03:56:05;;;;;;;24.00;13.40;;;;;;;13.23;66.36;99831.91;233967;1198;139915;-64
2021/09/08 04:01:09;;;;;;;25.30;13.60;;;;;;;13.22;66.51;99831.42;233749;1198;139862;-68
2021/09/08 04:06:14;;;;;;;24.60;14.70;;;;;;;13.23;66.53;99831.03;233209;1201;139035;-63
2021/09/08 04:11:17;;;;;;;23.00;14.70;;;;;;;13.23;66.55;99829.94;233986;1199;139404;-67
2021/09/08 04:16:22;;;;;;;23.30;14.50;;;;;;;13.18;66.40;99833.11;234104;1199;138954;-63
2021/09/08 04:21:28;;;;;;;25.70;14.00;;;;;;;13.14;66.53;99835.62;233714;1199;139312;-64
2021/09/08 04:26:32;;;;;;;23.40;13.00;;;;;;;13.09;66.59;99839.33;233818;1199;139158;-63
2021/09/08 04:31:35;;;;;;;23.30;13.90;;;;;;;13.09;66.82;99838.64;233234;1198;139218;-65
2021/09/08 04:36:39;;;;;;;22.80;13.80;;;;;;;13.09;66.88;99842.34;233990;1200;138761;-63
2021/09/08 04:41:44;;;;;;;27.90;14.70;;;;;;;13.10;66.85;99843.52;233498;1199;139167;-63
2021/09/08 04:46:47;;;;;;;298.60;217.00;;;;;;;13.11;67.03;99841.73;233980;1199;138732;-68
2021/09/08 04:51:50;;;;;;;28.80;14.30;;;;;;;13.32;67.73;99843.52;233997;1200;139291;-63
2021/09/08 04:56:53;;;;;;;265.10;197.50;;;;;;;13.46;67.59;99842.83;233998;1199;140817;-63
2021/09/08 05:01:56;;;;;;;29.00;15.30;;;;;;;13.94;68.57;99839.34;233966;1201;140098;-63
2021/09/08 05:06:59;;;;;;;81.10;54.60;;;;;;;14.23;67.72;99838.54;234029;1199;139236;-63
2021/09/08 05:12:05;;;;;;;30.70;16.30;;;;;;;14.26;66.95;99840.85;234197;1199;138393;-64
2021/09/08 05:17:08;;;;;;;31.20;15.40;;;;;;;14.30;67.00;99841.15;233844;1198;138762;-63
2021/09/08 05:22:11;;;;;;;26.60;14.90;;;;;;;14.47;67.50;99843.27;233446;1201;138742;-62
2021/09/08 05:27:14;;;;;;;25.60;14.90;;;;;;;14.72;67.66;99847.37;234004;1199;140141;-61
2021/09/08 05:32:17;;;;;;;30.30;18.40;;;;;;;14.88;67.26;99854.51;234071;1199;139227;-64
2021/09/08 05:37:20;;;;;;;30.40;15.10;;;;;;;14.98;67.02;99852.76;234153;1198;138953;-62
2021/09/08 05:42:23;;;;;;;22.90;13.80;;;;;;;15.01;66.80;99858.09;234019;1199;139718;-62
2021/09/08 05:47:26;;;;;;;23.00;13.00;;;;;;;15.02;66.83;99862.31;234142;1199;139654;-60
2021/09/08 05:52:29;;;;;;;19.80;12.60;;;;;;;15.02;66.79;99861.79;234132;1198;140730;-65
2021/09/08 05:57:32;;;;;;;20.80;13.40;;;;;;;15.03;66.91;99861.19;234079;1198;141166;-61
2021/09/08 06:02:35;;;;;;;19.00;12.30;;;;;;;15.11;67.09;99863.13;233514;1199;140268;-64
2021/09/08 06:07:41;;;;;;;20.80;13.30;;;;;;;15.20;67.18;99855.38;234117;1199;138774;-63
2021/09/08 06:12:45;;;;;;;20.60;12.00;;;;;;;15.32;67.19;99853.30;234122;1198;140045;-60
2021/09/08 06:17:48;;;;;;;20.50;12.90;;;;;;;15.40;66.93;99854.74;234274;1198;140038;-60
2021/09/08 06:22:51;;;;;;;20.50;13.10;;;;;;;15.50;66.93;99852.40;234083;1198;138825;-64
2021/09/08 06:27:54;;;;;;;20.90;12.00;;;;;;;15.59;66.80;99850.71;234112;1199;139360;-62
2021/09/08 06:32:57;;;;;;;23.40;12.30;;;;;;;15.71;66.79;99850.10;234059;1198;142432;-65
2021/09/08 06:38:00;;;;;;;18.20;12.70;;;;;;;15.90;67.15;99851.27;234095;1198;139611;-60
2021/09/08 06:43:03;;;;;;;19.40;13.00;;;;;;;16.11;67.22;99848.72;233851;1198;140421;-61
2021/09/08 06:48:06;;;;;;;373.80;295.90;;;;;;;16.24;67.09;99850.23;234136;1198;138516;-62
2021/09/08 06:53:09;;;;;;;57.00;40.70;;;;;;;16.49;67.65;99855.09;233729;1200;139852;-61
2021/09/08 06:58:12;;;;;;;80.20;54.20;;;;;;;16.80;68.19;99858.14;234046;1199;138688;-61
2021/09/08 07:03:15;;;;;;;63.50;41.00;;;;;;;17.16;68.00;99863.32;233980;1198;139916;-60
2021/09/08 07:08:21;;;;;;;65.60;43.70;;;;;;;17.47;67.58;99856.97;233895;1199;139816;-61
2021/09/08 07:13:27;;;;;;;27.20;17.70;;;;;;;17.67;67.06;99856.19;233730;1198;139126;-61
2021/09/08 07:18:30;;;;;;;44.40;30.10;;;;;;;17.74;66.48;99857.94;233915;1198;139862;-61
2021/09/08 07:23:33;;;;;;;35.30;23.40;;;;;;;17.79;66.21;99856.55;234153;1199;140101;-61
2021/09/08 07:28:37;;;;;;;36.00;23.20;;;;;;;17.84;66.13;99856.31;233786;1200;139520;-61
2021/09/08 07:33:40;;;;;;;30.40;21.30;;;;;;;17.90;65.80;99857.09;233419;1199;139822;-61
2021/09/08 07:38:43;;;;;;;19.60;12.10;;;;;;;17.93;65.73;99859.37;233196;1199;140376;-62
2021/09/08 07:43:47;;;;;;;57.70;39.40;;;;;;;18.00;65.34;99857.39;233883;1198;140628;-61
2021/09/08 07:48:50;;;;;;;28.90;19.50;;;;;;;18.07;65.40;99857.35;234017;1199;140790;-61
2021/09/08 07:53:53;;;;;;;18.80;12.30;;;;;;;18.19;65.16;99861.97;234145;1198;139458;-62
2021/09/08 07:58:56;;;;;;;45.90;25.20;;;;;;;18.27;65.01;99863.27;233767;1198;138734;-62
2021/09/08 08:04:00;;;;;;;20.00;13.90;;;;;;;18.35;65.17;99865.34;234050;1198;139139;-59
2021/09/08 08:09:05;;;;;;;25.80;17.30;;;;;;;18.43;65.16;99863.06;233922;1201;139851;-60
2021/09/08 08:14:08;;;;;;;452.60;327.80;;;;;;;18.53;64.83;99866.77;233602;1199;139609;-60
2021/09/08 08:19:12;;;;;;;34.10;22.50;;;;;;;18.65;64.50;99864.65;233675;1199;139738;-59
2021/09/08 08:24:15;;;;;;;25.30;15.40;;;;;;;18.78;64.23;99861.48;234138;1198;139102;-62
2021/09/08 08:29:18;;;;;;;19.00;11.70;;;;;;;18.88;63.95;99860.09;234052;1199;139032;-60
2021/09/08 08:34:21;;;;;;;17.50;11.30;;;;;;;18.96;63.72;99860.66;233993;1199;138882;-60
2021/09/08 08:39:24;;;;;;;18.30;10.50;;;;;;;19.04;63.72;99858.91;234063;1200;139060;-61
2021/09/08 08:44:28;;;;;;;16.90;10.60;;;;;;;19.11;63.51;99854.08;233970;1199;140360;-61
2021/09/08 08:49:32;;;;;;;18.10;12.60;;;;;;;19.19;63.27;99856.02;233955;1199;140275;-60
2021/09/08 08:54:36;;;;;;;15.60;11.40;;;;;;;19.23;62.99;99854.06;233980;1199;139338;-61
2021/09/08 08:59:41;;;;;;;17.90;9.30;;;;;;;19.26;62.86;99851.13;234103;1198;140233;-61
2021/09/08 09:04:44;;;;;;;18.60;10.10;;;;;;;19.31;62.77;99844.57;233943;1199;138989;-61
2021/09/08 09:10:09;;;;;;;14.60;9.00;;;;;;;19.41;62.74;99846.23;233828;1200;140119;-63
2021/09/08 09:15:18;;;;;;;334.40;229.80;;;;;;;19.58;62.49;99851.66;233487;1199;138917;-61
2021/09/08 09:20:29;;;;;;;27.30;16.60;;;;;;;19.75;62.12;99855.94;234120;1198;140076;-61
2021/09/08 09:25:38;;;;;;;24.70;12.40;;;;;;;19.90;61.63;99847.06;234103;1199;138893;-62
2021/09/08 09:30:42;;;;;;;23.90;11.70;;;;;;;20.02;61.29;99839.86;234121;1199;138725;-60
2021/09/08 09:36:22;;;;;;;21.20;9.00;;;;;;;20.16;61.22;99837.18;234269;1198;139072;-61
2021/09/08 09:41:25;;;;;;;38.40;10.80;;;;;;;20.30;61.06;99830.15;234125;1198;140246;-62
2021/09/08 09:46:28;;;;;;;13.80;9.00;;;;;;;20.41;60.73;99829.94;234077;1198;139385;-62
2021/09/08 09:51:31;;;;;;;14.60;9.30;;;;;;;20.49;60.33;99819.13;234056;1199;138964;-60
2021/09/08 09:56:34;;;;;;;12.90;8.20;;;;;;;20.60;59.81;99816.01;233943;1198;140115;-61
2021/09/08 10:01:37;;;;;;;15.10;8.70;;;;;;;20.72;59.56;99812.18;234178;1198;138379;-60
2021/09/08 10:06:43;;;;;;;16.70;9.70;;;;;;;20.89;59.46;99810.41;234103;1199;141752;-62
2021/09/08 10:11:51;;;;;;;18.40;8.70;;;;;;;21.02;59.52;99811.91;234198;1199;139583;-61
2021/09/08 10:17:00;;;;;;;13.90;8.90;;;;;;;21.17;59.07;99803.09;233933;1199;140426;-61
2021/09/08 10:22:10;;;;;;;19.20;9.40;;;;;;;21.31;58.78;99795.41;234161;1198;140277;-62
2021/09/08 10:27:28;;;;;;;17.20;9.20;;;;;;;21.56;59.00;99797.61;234104;1198;139050;-61
2021/09/08 10:32:32;;;;;;;15.60;9.90;;;;;;;21.81;58.96;99787.48;234120;1199;139530;-61
2021/09/08 10:37:36;;;;;;;26.10;12.60;;;;;;;22.03;58.81;99785.84;233847;1200;139228;-61
2021/09/08 10:42:57;;;;;;;27.00;10.60;;;;;;;22.22;58.61;99782.86;233682;1199;139725;-60
2021/09/08 10:48:02;;;;;;;14.10;7.80;;;;;;;22.36;58.10;99782.27;234143;1200;139287;-61
2021/09/08 10:53:20;;;;;;;23.10;10.10;;;;;;;22.43;57.47;99782.21;234042;1197;139541;-60
2021/09/08 10:58:23;;;;;;;20.20;9.20;;;;;;;22.47;57.23;99776.42;233929;1200;139340;-61
2021/09/08 11:03:30;;;;;;;17.10;8.90;;;;;;;22.51;57.01;99771.31;234066;1198;138762;-61
2021/09/08 11:08:34;;;;;;;12.60;8.60;;;;;;;22.60;56.83;99770.25;234070;1199;139167;-61
2021/09/08 11:13:40;;;;;;;17.20;9.50;;;;;;;22.74;56.40;99763.79;234040;1199;139723;-61
2021/09/08 11:18:44;;;;;;;14.20;8.80;;;;;;;22.88;56.13;99764.37;234102;1198;138688;-63
2021/09/08 11:23:49;;;;;;;16.50;8.60;;;;;;;22.92;55.75;99757.27;234223;1198;140418;-63
2021/09/08 11:28:58;;;;;;;32.80;23.10;;;;;;;22.91;55.54;99746.31;234050;1199;138748;-63
2021/09/08 11:34:03;;;;;;;21.10;13.80;;;;;;;22.89;55.57;99743.28;234075;1200;138826;-64
2021/09/08 11:39:13;;;;;;;15.70;8.90;;;;;;;22.90;55.42;99744.37;233278;1200;138899;-63
2021/09/08 11:44:16;;;;;;;22.70;9.60;;;;;;;22.94;55.18;99744.61;234119;1198;139166;-63
2021/09/08 11:49:19;;;;;;;84.90;72.20;;;;;;;23.01;55.14;99738.98;234066;1198;139487;-63
2021/09/08 11:54:24;;;;;;;16.70;10.80;;;;;;;23.14;55.14;99738.14;234203;1199;139246;-61
2021/09/08 11:59:31;;;;;;;;;;;;;;;23.28;54.52;99731.44;234113;1198;139634;-61
2021/09/08 12:04:34;;;;;;;14.50;8.70;;;;;;;23.26;54.02;99726.77;234067;1200;126307;-62
2021/09/08 12:09:43;;;;;;;13.70;8.60;;;;;;;23.09;53.88;99722.04;233961;1199;138680;-60
2021/09/08 12:14:48;;;;;;;10.20;8.60;;;;;;;23.06;54.04;99716.05;233688;1199;138756;-61
2021/09/08 12:19:58;;;;;;;26.90;18.90;;;;;;;23.24;54.27;99710.13;234000;1198;139048;-59
2021/09/08 12:25:15;;;;;;;12.10;9.20;;;;;;;23.45;54.25;99708.83;233891;1198;138796;-63
2021/09/08 12:30:18;;;;;;;15.10;8.50;;;;;;;23.64;54.10;99709.95;233915;1199;140510;-60
2021/09/08 12:35:44;;;;;;;17.40;9.80;;;;;;;23.80;53.66;99704.67;233987;1199;139474;-64
2021/09/08 12:41:27;;;;;;;16.80;7.90;;;;;;;24.02;53.54;99697.41;234003;1199;139719;-61
2021/09/08 12:47:06;;;;;;;17.90;8.90;;;;;;;24.26;53.34;99693.36;233985;1199;139266;-61
2021/09/08 12:52:13;;;;;;;17.70;8.40;;;;;;;24.50;52.99;99690.02;233992;1199;139881;-62
2021/09/08 12:57:19;;;;;;;13.20;8.00;;;;;;;24.67;52.52;99681.94;233956;1199;139252;-62
2021/09/08 13:02:23;;;;;;;51.90;38.00;;;;;;;24.84;52.37;99678.23;233644;1198;138643;-62
2021/09/08 13:07:26;;;;;;;232.10;177.10;;;;;;;24.96;51.67;99671.95;233511;1200;139584;-61
2021/09/08 13:12:29;;;;;;;17.60;11.80;;;;;;;25.04;51.18;99665.33;233943;1197;139257;-61
2021/09/08 13:17:32;;;;;;;10.90;8.10;;;;;;;25.15;50.88;99656.27;234086;1199;140076;-60
2021/09/08 13:22:35;;;;;;;20.80;9.30;;;;;;;25.27;50.52;99647.97;233888;1199;139189;-60
2021/09/08 13:27:39;;;;;;;14.70;8.60;;;;;;;25.42;50.61;99637.37;233998;1200;139907;-59
2021/09/08 13:32:42;;;;;;;15.80;8.20;;;;;;;25.55;50.10;99632.83;233895;1199;138351;-61
2021/09/08 13:37:47;;;;;;;11.70;7.60;;;;;;;25.61;49.90;99631.52;233464;1200;138626;-61
2021/09/08 13:42:50;;;;;;;10.60;8.00;;;;;;;25.73;49.39;99625.45;233908;1199;138955;-60
2021/09/08 13:47:53;;;;;;;14.20;8.20;;;;;;;25.85;49.16;99617.23;234076;1199;139021;-60
2021/09/08 13:52:56;;;;;;;116.80;92.10;;;;;;;25.92;49.09;99610.30;233978;1199;138718;-60
2021/09/08 13:58:05;;;;;;;29.90;22.50;;;;;;;25.99;48.90;99602.48;233820;1201;139509;-60
2021/09/08 14:03:08;;;;;;;10.80;8.40;;;;;;;25.93;48.76;99599.55;233969;1201;139498;-60
2021/09/08 14:08:18;;;;;;;13.40;8.20;;;;;;;25.67;48.00;99595.37;233529;1200;139992;-60
2021/09/08 14:13:21;;;;;;;15.70;9.50;;;;;;;25.33;47.82;99596.97;233711;1198;138560;-60
2021/09/08 14:18:26;;;;;;;25.50;11.30;;;;;;;25.01;48.04;99586.45;234224;1198;139295;-61
2021/09/08 14:23:30;;;;;;;26.90;12.20;;;;;;;24.69;48.06;99588.09;233799;1201;139383;-60
2021/09/08 14:28:33;;;;;;;15.00;9.10;;;;;;;24.40;48.29;99585.88;233830;1199;139506;-61
2021/09/08 14:33:37;;;;;;;11.80;9.10;;;;;;;24.19;48.41;99580.44;233668;1201;139045;-60
2021/09/08 14:38:40;;;;;;;11.50;9.10;;;;;;;24.01;48.47;99583.98;233997;1200;138809;-61
2021/09/08 14:43:44;;;;;;;12.40;8.30;;;;;;;23.82;48.46;99577.73;233967;1200;138885;-60
2021/09/08 14:48:47;;;;;;;14.00;8.70;;;;;;;23.63;48.58;99573.79;233864;1200;141808;-62
2021/09/08 14:53:50;;;;;;;12.50;9.30;;;;;;;23.48;48.78;99567.05;234051;1200;139080;-61
2021/09/08 14:58:53;;;;;;;19.50;16.30;;;;;;;23.36;48.78;99564.07;233864;1199;139428;-61
2021/09/08 15:03:56;;;;;;;14.50;8.80;;;;;;;23.24;48.88;99562.45;233999;1199;139210;-59
2021/09/08 15:08:59;;;;;;;13.20;8.70;;;;;;;23.13;49.11;99557.77;233837;1201;139414;-60
2021/09/08 15:14:03;;;;;;;12.80;8.20;;;;;;;23.05;49.39;99557.01;233643;1198;139812;-61
2021/09/08 15:19:06;;;;;;;11.70;8.50;;;;;;;22.97;49.49;99548.67;234011;1199;138560;-61
2021/09/08 15:24:09;;;;;;;17.10;8.70;;;;;;;22.89;49.51;99543.60;234017;1201;138777;-60
2021/09/08 15:29:14;;;;;;;16.60;9.40;;;;;;;22.83;49.59;99541.19;233302;1200;139258;-60
2021/09/08 15:34:22;;;;;;;14.40;9.70;;;;;;;22.78;49.76;99535.02;233958;1198;139384;-59
2021/09/08 15:39:25;;;;;;;16.40;10.70;;;;;;;22.72;49.98;99532.41;234072;1198;139451;-60
2021/09/08 15:44:28;;;;;;;118.80;82.30;;;;;;;22.68;50.22;99527.23;233953;1200;139267;-61
2021/09/08 15:49:31;;;;;;;35.00;24.40;;;;;;;22.65;50.34;99521.23;233986;1201;139470;-60
2021/09/08 15:54:54;;;;;;;21.40;11.80;;;;;;;22.57;50.76;99517.66;233969;1199;140033;-60
2021/09/08 15:59:57;;;;;;;15.80;8.80;;;;;;;22.51;50.74;99517.60;233820;1198;138842;-62
2021/09/08 16:05:03;;;;;;;11.80;8.10;;;;;;;22.43;50.85;99511.71;234001;1199;138730;-60
2021/09/08 16:10:07;;;;;;;15.30;8.80;;;;;;;22.34;51.12;99506.70;233988;1201;138794;-61
2021/09/08 16:15:11;;;;;;;166.40;121.80;;;;;;;22.28;51.37;99507.20;234001;1198;139186;-60
2021/09/08 16:20:15;;;;;;;62.70;46.20;;;;;;;22.23;51.71;99506.59;233969;1198;139061;-60
2021/09/08 16:25:19;;;;;;;28.90;20.30;;;;;;;22.19;51.89;99508.45;233917;1201;139078;-61
2021/09/08 16:30:22;;;;;;;19.10;13.60;;;;;;;22.12;52.07;99504.65;234058;1201;139134;-61
2021/09/08 16:35:25;;;;;;;17.80;13.80;;;;;;;22.01;52.17;99496.17;233949;1200;139399;-61
2021/09/08 16:40:28;;;;;;;35.50;27.40;;;;;;;21.90;52.34;99494.55;233883;1201;139538;-61
2021/09/08 16:45:32;;;;;;;23.40;16.40;;;;;;;21.80;52.51;99494.15;233934;1200;139706;-61
2021/09/08 16:50:37;;;;;;;19.10;13.00;;;;;;;21.70;52.75;99486.14;233929;1198;140340;-62
2021/09/08 16:55:40;;;;;;;666.10;569.60;;;;;;;21.61;52.80;99491.38;233905;1201;139037;-60
2021/09/08 17:00:44;;;;;;;69.30;53.40;;;;;;;21.55;53.08;99498.52;233933;1201;140023;-62
2021/09/08 17:05:47;;;;;;;27.90;20.00;;;;;;;21.48;53.32;99495.42;233988;1200;139485;-60
2021/09/08 17:10:50;;;;;;;19.30;12.60;;;;;;;21.41;53.52;99498.77;233957;1201;139052;-61
2021/09/08 17:15:53;;;;;;;14.90;10.90;;;;;;;21.34;53.66;99503.52;233049;1199;140156;-61
2021/09/08 17:20:56;;;;;;;17.30;10.40;;;;;;;21.24;53.82;99506.62;233862;1199;138485;-63
2021/09/08 17:25:59;;;;;;;14.30;9.80;;;;;;;21.12;54.01;99515.24;233614;1198;139832;-62
2021/09/08 17:31:03;;;;;;;183.30;141.80;;;;;;;20.98;54.12;99514.73;233895;1199;138798;-63
2021/09/08 17:36:06;;;;;;;21.40;14.70;;;;;;;20.86;54.24;99522.02;234101;1199;139721;-62
2021/09/08 17:46:15;;;;;;;15.90;10.30;;;;;;;20.62;54.65;99523.14;233861;1199;138796;-61
2021/09/08 17:51:20;;;;;;;308.50;195.50;;;;;;;20.52;54.89;99525.90;233812;1199;139616;-63
2021/09/08 17:56:23;;;;;;;29.50;18.40;;;;;;;20.40;55.13;99528.75;233975;1199;138889;-62
2021/09/08 18:01:27;;;;;;;19.60;11.90;;;;;;;20.29;55.48;99525.52;234006;1199;139042;-62
2021/09/08 18:06:30;;;;;;;33.20;18.10;;;;;;;20.20;55.72;99525.99;233972;1198;138537;-64
2021/09/08 18:11:35;;;;;;;22.70;12.50;;;;;;;20.11;55.92;99527.09;234002;1200;138770;-64
2021/09/08 18:16:38;;;;;;;20.80;11.70;;;;;;;20.03;55.95;99534.84;233825;1198;138522;-64
2021/09/08 18:21:41;;;;;;;20.60;12.30;;;;;;;19.91;56.04;99534.32;234078;1198;139435;-64
2021/09/08 18:26:45;;;;;;;22.40;12.30;;;;;;;19.80;56.22;99530.63;233969;1199;139514;-61
2021/09/08 18:31:50;;;;;;;23.80;13.00;;;;;;;19.71;56.46;99525.00;234080;1198;138642;-62
2021/09/08 18:36:54;;;;;;;20.30;12.80;;;;;;;19.64;56.47;99529.98;233897;1201;140260;-61
2021/09/08 18:41:57;;;;;;;25.70;13.10;;;;;;;19.57;56.72;99527.88;234003;1201;139079;-62
2021/09/08 18:47:03;;;;;;;22.10;13.80;;;;;;;19.53;57.01;99530.04;233189;1199;139653;-62
2021/09/08 18:52:08;;;;;;;22.90;14.20;;;;;;;19.49;57.03;99526.40;234065;1198;138947;-62
2021/09/08 18:57:12;;;;;;;23.40;14.10;;;;;;;19.46;57.26;99527.25;233696;1200;139393;-62
2021/09/08 19:02:15;;;;;;;25.00;14.00;;;;;;;19.44;57.35;99531.73;234012;1199;140905;-62
2021/09/08 19:07:19;;;;;;;27.30;14.50;;;;;;;19.36;57.39;99525.64;233972;1198;138951;-63
2021/09/08 19:12:22;;;;;;;26.00;13.80;;;;;;;19.30;57.52;99529.80;234114;1198;139502;-63
2021/09/08 19:17:25;;;;;;;21.50;13.90;;;;;;;19.24;57.56;99530.36;233895;1198;139821;-62
2021/09/08 19:22:29;;;;;;;22.20;13.60;;;;;;;19.18;57.76;99524.98;234019;1199;138831;-64
2021/09/08 19:27:31;;;;;;;20.70;13.20;;;;;;;19.09;57.91;99518.53;234008;1198;138901;-63
2021/09/08 19:32:35;;;;;;;21.60;14.40;;;;;;;19.00;58.05;99519.70;233829;1198;140191;-62
2021/09/08 19:37:38;;;;;;;25.20;13.50;;;;;;;18.89;58.30;99519.40;233988;1199;139708;-64
2021/09/08 19:42:43;;;;;;;21.70;12.90;;;;;;;18.81;58.54;99519.86;233261;1199;140128;-64
2021/09/08 19:47:48;;;;;;;190.50;124.30;;;;;;;18.78;58.75;99515.55;234078;1200;139351;-63
2021/09/08 19:52:51;;;;;;;28.90;17.40;;;;;;;18.79;59.03;99512.95;233956;1201;139530;-62
2021/09/08 19:57:54;;;;;;;25.80;15.70;;;;;;;18.79;59.07;99514.39;233763;1199;139409;-60
2021/09/08 20:02:57;;;;;;;25.30;16.10;;;;;;;18.77;59.26;99515.48;232942;1198;138961;-62
2021/09/08 20:08:00;;;;;;;23.00;15.00;;;;;;;18.73;59.35;99515.80;234164;1198;139878;-61
2021/09/08 20:13:03;;;;;;;26.60;16.70;;;;;;;18.65;59.38;99515.55;233977;1200;139752;-61
2021/09/08 20:18:06;;;;;;;27.80;16.30;;;;;;;18.58;59.56;99514.46;233356;1199;143691;-61
2021/09/08 20:23:09;;;;;;;26.00;16.20;;;;;;;18.48;59.64;99512.40;234169;1198;139987;-62
2021/09/08 20:28:13;;;;;;;23.50;15.60;;;;;;;18.38;59.76;99514.51;233459;1199;139266;-60
2021/09/08 20:33:16;;;;;;;24.80;16.00;;;;;;;18.33;59.86;99515.04;234025;1200;140391;-61
2021/09/08 20:38:19;;;;;;;25.30;16.40;;;;;;;18.27;60.01;99513.34;234012;1198;139679;-62
2021/09/08 20:43:22;;;;;;;26.10;16.70;;;;;;;18.20;60.23;99514.85;234052;1198;138937;-61
2021/09/08 20:48:25;;;;;;;25.20;15.00;;;;;;;18.09;60.20;99519.71;233529;1198;138946;-62
2021/09/08 20:53:28;;;;;;;27.70;18.00;;;;;;;18.01;60.47;99523.30;233702;1199;140580;-62
2021/09/08 20:58:32;;;;;;;23.50;16.40;;;;;;;17.89;60.49;99521.29;233733;1198;140579;-63
2021/09/08 21:03:35;;;;;;;27.30;15.80;;;;;;;17.77;60.80;99517.79;233670;1199;144518;-60
2021/09/08 21:08:38;;;;;;;25.60;15.70;;;;;;;17.68;61.02;99514.91;233536;1198;140219;-60
2021/09/08 21:13:42;;;;;;;24.10;16.40;;;;;;;17.62;61.14;99522.42;233905;1199;140540;-60
2021/09/08 21:18:46;;;;;;;26.40;16.40;;;;;;;17.58;61.33;99521.36;233814;1198;139366;-61
2021/09/08 21:23:49;;;;;;;27.70;16.90;;;;;;;17.52;61.48;99522.90;233223;1198;138868;-59
2021/09/08 21:28:52;;;;;;;25.60;16.40;;;;;;;17.45;61.65;99522.44;233896;1198;140678;-60
2021/09/08 21:33:55;;;;;;;26.30;16.60;;;;;;;17.35;61.83;99522.65;233773;1198;138423;-63
2021/09/08 21:39:02;;;;;;;25.80;16.30;;;;;;;17.26;61.90;99522.73;233737;1199;138865;-62
2021/09/08 21:44:05;;;;;;;23.90;15.80;;;;;;;17.19;62.06;99521.86;234083;1198;139951;-63
2021/09/08 21:49:08;;;;;;;25.20;15.40;;;;;;;17.17;62.30;99522.88;233867;1198;141378;-62
2021/09/08 21:54:11;;;;;;;26.40;16.50;;;;;;;17.14;62.34;99521.73;233976;1199;138664;-62
2021/09/08 21:59:14;;;;;;;366.20;263.40;;;;;;;17.07;62.26;99521.56;233571;1199;144651;-62
2021/09/08 22:04:17;;;;;;;41.90;25.60;;;;;;;17.02;62.60;99522.48;234003;1199;142224;-62
2021/09/08 22:09:20;;;;;;;25.70;18.40;;;;;;;16.96;62.67;99519.95;234039;1199;139285;-60
2021/09/08 22:14:23;;;;;;;27.00;17.40;;;;;;;16.86;62.91;99519.14;233998;1199;138825;-61
2021/09/08 22:19:27;;;;;;;27.10;15.90;;;;;;;16.81;63.06;99518.48;233911;1198;139609;-61
2021/09/08 22:24:30;;;;;;;25.10;17.40;;;;;;;16.78;63.23;99516.39;234214;1198;140321;-62
2021/09/08 22:29:33;;;;;;;58.40;37.40;;;;;;;16.76;63.26;99518.14;234097;1198;139437;-62
2021/09/08 22:34:36;;;;;;;29.60;16.90;;;;;;;16.76;63.38;99517.92;233897;1199;138748;-64
2021/09/08 22:39:39;;;;;;;25.50;16.90;;;;;;;16.71;63.27;99521.25;233986;1199;138745;-62
2021/09/08 22:44:42;;;;;;;26.30;16.70;;;;;;;16.64;63.52;99516.05;234160;1198;139172;-60
2021/09/08 22:49:45;;;;;;;23.40;15.60;;;;;;;16.53;63.32;99519.77;233882;1198;139769;-60
2021/09/08 22:54:48;;;;;;;26.00;15.60;;;;;;;16.44;63.45;99513.85;234057;1195;139699;-60